Jackson Hole (JAC/KJAC)

Map

Information

Location
Jackson Hole, WY
Local Time
21:37 / 9:37 pm
GMT Time
03:37 / 3:37 am
Gates
A4
No FAA reported delays
METAR KJAC 250335Z AUTO 35003KT 10SM CLR 13/02 A3033 RMK AO1
TAF KJAC 242329Z 2500/2524 30008KT P6SM FEW090 FM250200 VRB06KT P6SM SKC FM251800 22006KT P6SM SCT090 AMD LTD TO CLD VIS AND WIND